sensor_id;sensor_type;location;lat;lon;timestamp;temperature;humidity
8114;DHT22;4099;52.684;9.918;2023-04-03T00:04:23;-0.10;99.90
8114;DHT22;4099;52.684;9.918;2023-04-03T00:09:25;-0.20;99.90
8114;DHT22;4099;52.684;9.918;2023-04-03T00:14:28;-0.30;99.90
8114;DHT22;4099;52.684;9.918;2023-04-03T00:19:30;-0.30;99.90
8114;DHT22;4099;52.684;9.918;2023-04-03T00:24:32;-0.40;99.90
8114;DHT22;4099;52.684;9.918;2023-04-03T00:29:38;-0.60;99.90
8114;DHT22;4099;52.684;9.918;2023-04-03T00:34:39;-0.80;99.90
8114;DHT22;4099;52.684;9.918;2023-04-03T00:39:41;-1.00;99.90
8114;DHT22;4099;52.684;9.918;2023-04-03T00:50:24;-1.10;99.90
8114;DHT22;4099;52.684;9.918;2023-04-03T00:55:26;-1.10;99.90
8114;DHT22;4099;52.684;9.918;2023-04-03T01:00:28;-1.10;99.90
8114;DHT22;4099;52.684;9.918;2023-04-03T01:05:31;-1.20;99.90
8114;DHT22;4099;52.684;9.918;2023-04-03T01:10:34;-1.40;99.90
8114;DHT22;4099;52.684;9.918;2023-04-03T01:15:36;-1.40;99.90
8114;DHT22;4099;52.684;9.918;2023-04-03T01:21:21;-1.40;99.90
8114;DHT22;4099;52.684;9.918;2023-04-03T01:26:27;-1.30;99.90
8114;DHT22;4099;52.684;9.918;2023-04-03T01:31:40;-1.20;99.90
8114;DHT22;4099;52.684;9.918;2023-04-03T01:36:43;-1.30;99.90
8114;DHT22;4099;52.684;9.918;2023-04-03T01:41:45;-1.30;99.90
8114;DHT22;4099;52.684;9.918;2023-04-03T01:46:55;-1.20;99.90
8114;DHT22;4099;52.684;9.918;2023-04-03T01:51:58;-1.10;99.90
8114;DHT22;4099;52.684;9.918;2023-04-03T01:57:00;-1.10;99.90
8114;DHT22;4099;52.684;9.918;2023-04-03T02:02:04;-1.20;99.90
8114;DHT22;4099;52.684;9.918;2023-04-03T02:07:06;-1.30;99.90
8114;DHT22;4099;52.684;9.918;2023-04-03T02:12:08;-1.30;99.90
8114;DHT22;4099;52.684;9.918;2023-04-03T02:17:13;-1.20;99.90
8114;DHT22;4099;52.684;9.918;2023-04-03T02:22:15;-1.30;99.90
8114;DHT22;4099;52.684;9.918;2023-04-03T02:27:17;-1.30;99.90
8114;DHT22;4099;52.684;9.918;2023-04-03T02:32:20;-1.30;99.90
8114;DHT22;4099;52.684;9.918;2023-04-03T02:37:22;-1.30;99.90
8114;DHT22;4099;52.684;9.918;2023-04-03T02:42:27;-1.30;99.90
8114;DHT22;4099;52.684;9.918;2023-04-03T02:47:32;-1.30;99.90
8114;DHT22;4099;52.684;9.918;2023-04-03T02:52:34;-1.40;99.90
8114;DHT22;4099;52.684;9.918;2023-04-03T02:57:36;-1.30;99.90
8114;DHT22;4099;52.684;9.918;2023-04-03T03:02:39;-1.30;99.90
8114;DHT22;4099;52.684;9.918;2023-04-03T03:07:41;-1.40;99.90
8114;DHT22;4099;52.684;9.918;2023-04-03T03:12:43;-1.40;99.90
8114;DHT22;4099;52.684;9.918;2023-04-03T03:17:45;-1.40;99.90
8114;DHT22;4099;52.684;9.918;2023-04-03T03:22:47;-1.40;99.90
8114;DHT22;4099;52.684;9.918;2023-04-03T03:27:49;-1.40;99.90
8114;DHT22;4099;52.684;9.918;2023-04-03T03:32:52;-1.50;99.90
8114;DHT22;4099;52.684;9.918;2023-04-03T03:37:54;-1.40;99.90
8114;DHT22;4099;52.684;9.918;2023-04-03T03:42:57;-1.40;99.90
8114;DHT22;4099;52.684;9.918;2023-04-03T03:48:00;-1.40;99.90
8114;DHT22;4099;52.684;9.918;2023-04-03T03:53:03;-1.50;99.90
8114;DHT22;4099;52.684;9.918;2023-04-03T03:58:04;-1.50;99.90
8114;DHT22;4099;52.684;9.918;2023-04-03T04:03:09;-1.60;99.90
8114;DHT22;4099;52.684;9.918;2023-04-03T04:08:11;-1.50;99.90
8114;DHT22;4099;52.684;9.918;2023-04-03T04:13:13;-1.60;99.90
8114;DHT22;4099;52.684;9.918;2023-04-03T04:18:17;-1.80;99.90
8114;DHT22;4099;52.684;9.918;2023-04-03T04:23:22;-1.80;99.90
8114;DHT22;4099;52.684;9.918;2023-04-03T04:28:25;-1.90;99.90
8114;DHT22;4099;52.684;9.918;2023-04-03T04:33:30;-1.90;99.90
8114;DHT22;4099;52.684;9.918;2023-04-03T04:38:35;-1.90;99.90
8114;DHT22;4099;52.684;9.918;2023-04-03T04:43:37;-1.90;99.90
8114;DHT22;4099;52.684;9.918;2023-04-03T04:48:40;-2.00;99.90
8114;DHT22;4099;52.684;9.918;2023-04-03T04:53:43;-2.10;99.90
8114;DHT22;4099;52.684;9.918;2023-04-03T04:58:48;-2.10;99.90
8114;DHT22;4099;52.684;9.918;2023-04-03T05:03:53;-2.10;99.90
8114;DHT22;4099;52.684;9.918;2023-04-03T05:08:57;-2.10;99.90
8114;DHT22;4099;52.684;9.918;2023-04-03T05:13:59;-2.00;99.90
8114;DHT22;4099;52.684;9.918;2023-04-03T05:19:04;-1.90;99.90
8114;DHT22;4099;52.684;9.918;2023-04-03T05:24:06;-1.90;99.90
8114;DHT22;4099;52.684;9.918;2023-04-03T05:29:12;-1.80;99.90
8114;DHT22;4099;52.684;9.918;2023-04-03T05:34:16;-1.70;99.90
8114;DHT22;4099;52.684;9.918;2023-04-03T05:39:20;-1.60;99.90
8114;DHT22;4099;52.684;9.918;2023-04-03T05:44:23;-1.60;99.90
8114;DHT22;4099;52.684;9.918;2023-04-03T05:49:27;-1.50;99.90
8114;DHT22;4099;52.684;9.918;2023-04-03T05:54:30;-1.40;99.90
8114;DHT22;4099;52.684;9.918;2023-04-03T05:59:43;-1.30;99.90
8114;DHT22;4099;52.684;9.918;2023-04-03T06:04:47;-1.00;99.90
8114;DHT22;4099;52.684;9.918;2023-04-03T06:09:50;-0.90;99.90
8114;DHT22;4099;52.684;9.918;2023-04-03T06:14:52;-0.70;99.90
8114;DHT22;4099;52.684;9.918;2023-04-03T06:19:55;-0.50;99.90
8114;DHT22;4099;52.684;9.918;2023-04-03T06:24:59;-0.40;99.90
8114;DHT22;4099;52.684;9.918;2023-04-03T06:30:01;-0.10;99.90
8114;DHT22;4099;52.684;9.918;2023-04-03T06:35:05;0.00;99.90
8114;DHT22;4099;52.684;9.918;2023-04-03T06:40:12;0.20;99.90
8114;DHT22;4099;52.684;9.918;2023-04-03T06:45:16;0.40;99.90
8114;DHT22;4099;52.684;9.918;2023-04-03T06:50:19;0.60;99.90
8114;DHT22;4099;52.684;9.918;2023-04-03T06:55:21;0.70;99.90
8114;DHT22;4099;52.684;9.918;2023-04-03T07:00:23;0.90;99.90
8114;DHT22;4099;52.684;9.918;2023-04-03T07:05:26;1.00;99.90
8114;DHT22;4099;52.684;9.918;2023-04-03T07:10:28;1.20;99.90
8114;DHT22;4099;52.684;9.918;2023-04-03T07:15:30;1.40;99.90
8114;DHT22;4099;52.684;9.918;2023-04-03T07:20:34;1.60;99.90
8114;DHT22;4099;52.684;9.918;2023-04-03T07:25:36;1.80;99.90
8114;DHT22;4099;52.684;9.918;2023-04-03T07:30:43;2.10;99.90
8114;DHT22;4099;52.684;9.918;2023-04-03T07:35:49;2.30;99.90
8114;DHT22;4099;52.684;9.918;2023-04-03T07:40:51;2.70;99.90
8114;DHT22;4099;52.684;9.918;2023-04-03T07:45:54;3.10;99.90
8114;DHT22;4099;52.684;9.918;2023-04-03T07:51:01;3.40;99.90
8114;DHT22;4099;52.684;9.918;2023-04-03T07:56:03;3.70;99.90
8114;DHT22;4099;52.684;9.918;2023-04-03T08:01:05;4.00;99.90
8114;DHT22;4099;52.684;9.918;2023-04-03T08:06:09;4.40;99.90
8114;DHT22;4099;52.684;9.918;2023-04-03T08:11:11;4.60;99.90
8114;DHT22;4099;52.684;9.918;2023-04-03T08:16:16;4.90;99.90
8114;DHT22;4099;52.684;9.918;2023-04-03T08:21:20;5.20;99.90
8114;DHT22;4099;52.684;9.918;2023-04-03T08:26:22;5.30;99.90
8114;DHT22;4099;52.684;9.918;2023-04-03T08:31:23;5.70;99.90
8114;DHT22;4099;52.684;9.918;2023-04-03T08:36:29;6.00;99.90
8114;DHT22;4099;52.684;9.918;2023-04-03T08:41:33;6.40;99.90
8114;DHT22;4099;52.684;9.918;2023-04-03T08:46:47;6.70;99.20
8114;DHT22;4099;52.684;9.918;2023-04-03T08:51:52;6.90;96.50
8114;DHT22;4099;52.684;9.918;2023-04-03T08:56:56;7.30;95.10
8114;DHT22;4099;52.684;9.918;2023-04-03T09:02:00;7.40;93.90
8114;DHT22;4099;52.684;9.918;2023-04-03T09:07:11;7.50;94.40
8114;DHT22;4099;52.684;9.918;2023-04-03T09:12:18;7.40;92.20
8114;DHT22;4099;52.684;9.918;2023-04-03T09:17:35;7.50;92.20
8114;DHT22;4099;52.684;9.918;2023-04-03T09:22:43;7.70;93.40
8114;DHT22;4099;52.684;9.918;2023-04-03T09:27:45;8.10;92.10
8114;DHT22;4099;52.684;9.918;2023-04-03T09:32:48;8.10;90.60
8114;DHT22;4099;52.684;9.918;2023-04-03T09:37:53;8.20;91.20
8114;DHT22;4099;52.684;9.918;2023-04-03T09:42:59;8.10;90.20
8114;DHT22;4099;52.684;9.918;2023-04-03T09:48:06;7.50;90.30
8114;DHT22;4099;52.684;9.918;2023-04-03T09:53:27;7.70;89.80
8114;DHT22;4099;52.684;9.918;2023-04-03T09:58:31;8.30;90.60
8114;DHT22;4099;52.684;9.918;2023-04-03T10:03:35;9.10;83.90
8114;DHT22;4099;52.684;9.918;2023-04-03T10:08:41;9.00;81.10
8114;DHT22;4099;52.684;9.918;2023-04-03T10:13:55;8.20;85.30
8114;DHT22;4099;52.684;9.918;2023-04-03T10:19:13;9.30;85.40
8114;DHT22;4099;52.684;9.918;2023-04-03T10:24:23;10.20;83.10
8114;DHT22;4099;52.684;9.918;2023-04-03T10:29:40;10.60;78.00
8114;DHT22;4099;52.684;9.918;2023-04-03T10:34:45;10.00;79.60
8114;DHT22;4099;52.684;9.918;2023-04-03T10:39:53;9.30;79.50
8114;DHT22;4099;52.684;9.918;2023-04-03T10:45:15;8.60;81.50
8114;DHT22;4099;52.684;9.918;2023-04-03T10:50:30;8.10;81.10
8114;DHT22;4099;52.684;9.918;2023-04-03T10:55:40;7.90;82.60
8114;DHT22;4099;52.684;9.918;2023-04-03T11:00:48;8.00;81.00
8114;DHT22;4099;52.684;9.918;2023-04-03T11:05:52;8.00;80.40
8114;DHT22;4099;52.684;9.918;2023-04-03T11:10:58;8.00;81.70
8114;DHT22;4099;52.684;9.918;2023-04-03T11:16:03;8.10;82.60
8114;DHT22;4099;52.684;9.918;2023-04-03T11:21:08;8.50;77.80
8114;DHT22;4099;52.684;9.918;2023-04-03T11:26:13;8.90;79.70
8114;DHT22;4099;52.684;9.918;2023-04-03T11:31:29;9.20;78.90
8114;DHT22;4099;52.684;9.918;2023-04-03T11:36:38;10.60;76.20
8114;DHT22;4099;52.684;9.918;2023-04-03T11:41:42;10.50;75.30
8114;DHT22;4099;52.684;9.918;2023-04-03T11:46:55;10.60;73.40
8114;DHT22;4099;52.684;9.918;2023-04-03T11:51:57;11.10;71.40
8114;DHT22;4099;52.684;9.918;2023-04-03T11:57:00;11.30;73.30
8114;DHT22;4099;52.684;9.918;2023-04-03T12:02:01;10.40;73.80
8114;DHT22;4099;52.684;9.918;2023-04-03T12:07:25;9.10;74.60
8114;DHT22;4099;52.684;9.918;2023-04-03T12:12:34;8.40;78.30
8114;DHT22;4099;52.684;9.918;2023-04-03T12:17:36;8.40;80.00
8114;DHT22;4099;52.684;9.918;2023-04-03T12:22:38;8.20;77.40
8114;DHT22;4099;52.684;9.918;2023-04-03T12:28:01;8.60;80.80
8114;DHT22;4099;52.684;9.918;2023-04-03T12:33:32;10.70;74.30
8114;DHT22;4099;52.684;9.918;2023-04-03T12:39:01;10.90;72.20
8114;DHT22;4099;52.684;9.918;2023-04-03T12:44:18;11.80;73.40
8114;DHT22;4099;52.684;9.918;2023-04-03T12:49:33;13.30;71.20
8114;DHT22;4099;52.684;9.918;2023-04-03T12:54:39;14.80;67.40
8114;DHT22;4099;52.684;9.918;2023-04-03T12:59:43;15.50;64.20
8114;DHT22;4099;52.684;9.918;2023-04-03T13:04:47;16.30;59.30
8114;DHT22;4099;52.684;9.918;2023-04-03T13:09:56;15.30;60.00
8114;DHT22;4099;52.684;9.918;2023-04-03T13:15:01;15.80;57.90
8114;DHT22;4099;52.684;9.918;2023-04-03T13:20:13;17.30;55.90
8114;DHT22;4099;52.684;9.918;2023-04-03T13:25:16;13.70;59.00
8114;DHT22;4099;52.684;9.918;2023-04-03T13:30:25;13.40;58.50
8114;DHT22;4099;52.684;9.918;2023-04-03T13:35:31;14.40;58.80
8114;DHT22;4099;52.684;9.918;2023-04-03T13:40:33;14.70;56.30
8114;DHT22;4099;52.684;9.918;2023-04-03T13:45:36;13.40;55.40
8114;DHT22;4099;52.684;9.918;2023-04-03T13:50:55;11.00;57.30
8114;DHT22;4099;52.684;9.918;2023-04-03T13:56:05;10.30;60.20
8114;DHT22;4099;52.684;9.918;2023-04-03T14:01:10;11.70;66.30
8114;DHT22;4099;52.684;9.918;2023-04-03T14:06:15;16.20;57.00
8114;DHT22;4099;52.684;9.918;2023-04-03T14:11:19;17.30;54.60
8114;DHT22;4099;52.684;9.918;2023-04-03T14:16:27;15.00;54.60
8114;DHT22;4099;52.684;9.918;2023-04-03T14:21:31;12.10;58.70
8114;DHT22;4099;52.684;9.918;2023-04-03T14:26:32;14.70;57.60
8114;DHT22;4099;52.684;9.918;2023-04-03T14:31:36;16.80;53.60
8114;DHT22;4099;52.684;9.918;2023-04-03T14:36:39;18.70;53.50
8114;DHT22;4099;52.684;9.918;2023-04-03T14:41:42;18.10;45.20
8114;DHT22;4099;52.684;9.918;2023-04-03T14:46:45;15.80;46.20
8114;DHT22;4099;52.684;9.918;2023-04-03T14:51:47;13.30;51.60
8114;DHT22;4099;52.684;9.918;2023-04-03T14:56:49;12.20;51.80
8114;DHT22;4099;52.684;9.918;2023-04-03T15:01:52;11.60;53.10
8114;DHT22;4099;52.684;9.918;2023-04-03T15:06:53;11.10;55.30
8114;DHT22;4099;52.684;9.918;2023-04-03T15:11:55;10.50;53.10
8114;DHT22;4099;52.684;9.918;2023-04-03T15:16:58;10.20;56.60
8114;DHT22;4099;52.684;9.918;2023-04-03T15:22:00;11.00;57.80
8114;DHT22;4099;52.684;9.918;2023-04-03T15:27:02;10.70;56.10
8114;DHT22;4099;52.684;9.918;2023-04-03T15:32:05;9.50;58.50
8114;DHT22;4099;52.684;9.918;2023-04-03T15:37:07;9.10;61.60
8114;DHT22;4099;52.684;9.918;2023-04-03T15:42:09;9.20;60.90
8114;DHT22;4099;52.684;9.918;2023-04-03T15:47:14;9.60;59.30
8114;DHT22;4099;52.684;9.918;2023-04-03T15:52:16;10.10;58.20
8114;DHT22;4099;52.684;9.918;2023-04-03T15:57:17;10.30;57.40
8114;DHT22;4099;52.684;9.918;2023-04-03T16:02:20;9.60;57.60
8114;DHT22;4099;52.684;9.918;2023-04-03T16:07:22;8.80;61.40
8114;DHT22;4099;52.684;9.918;2023-04-03T16:12:24;9.30;64.00
8114;DHT22;4099;52.684;9.918;2023-04-03T16:17:27;12.20;54.90
8114;DHT22;4099;52.684;9.918;2023-04-03T16:22:29;11.30;56.40
8114;DHT22;4099;52.684;9.918;2023-04-03T16:27:31;11.20;56.90
8114;DHT22;4099;52.684;9.918;2023-04-03T16:32:35;11.80;56.00
8114;DHT22;4099;52.684;9.918;2023-04-03T16:37:38;12.70;54.80
8114;DHT22;4099;52.684;9.918;2023-04-03T16:42:40;12.50;58.00
8114;DHT22;4099;52.684;9.918;2023-04-03T16:47:43;11.80;55.60
8114;DHT22;4099;52.684;9.918;2023-04-03T16:52:45;11.50;56.50
8114;DHT22;4099;52.684;9.918;2023-04-03T16:57:47;10.10;57.40
8114;DHT22;4099;52.684;9.918;2023-04-03T17:02:50;8.90;59.40
8114;DHT22;4099;52.684;9.918;2023-04-03T17:07:51;8.00;62.00
8114;DHT22;4099;52.684;9.918;2023-04-03T17:12:53;7.60;62.80
8114;DHT22;4099;52.684;9.918;2023-04-03T17:17:56;7.40;64.40
8114;DHT22;4099;52.684;9.918;2023-04-03T17:22:58;7.20;66.60
8114;DHT22;4099;52.684;9.918;2023-04-03T17:28:00;7.20;68.20
8114;DHT22;4099;52.684;9.918;2023-04-03T17:33:03;7.10;68.40
8114;DHT22;4099;52.684;9.918;2023-04-03T17:38:05;6.80;69.70
8114;DHT22;4099;52.684;9.918;2023-04-03T17:43:06;6.70;70.50
8114;DHT22;4099;52.684;9.918;2023-04-03T17:48:09;6.50;72.00
8114;DHT22;4099;52.684;9.918;2023-04-03T17:53:11;6.10;71.40
8114;DHT22;4099;52.684;9.918;2023-04-03T17:58:14;5.70;74.50
8114;DHT22;4099;52.684;9.918;2023-04-03T18:03:18;5.40;76.30
8114;DHT22;4099;52.684;9.918;2023-04-03T18:08:20;5.10;77.60
8114;DHT22;4099;52.684;9.918;2023-04-03T18:13:22;4.80;80.20
8114;DHT22;4099;52.684;9.918;2023-04-03T18:18:25;4.50;84.20
8114;DHT22;4099;52.684;9.918;2023-04-03T18:23:30;4.10;90.20
8114;DHT22;4099;52.684;9.918;2023-04-03T18:28:33;3.90;93.10
8114;DHT22;4099;52.684;9.918;2023-04-03T18:33:36;3.70;95.00
8114;DHT22;4099;52.684;9.918;2023-04-03T18:38:37;3.60;94.80
8114;DHT22;4099;52.684;9.918;2023-04-03T18:43:39;3.50;95.60
8114;DHT22;4099;52.684;9.918;2023-04-03T18:48:42;3.40;96.90
8114;DHT22;4099;52.684;9.918;2023-04-03T18:53:45;3.30;96.20
8114;DHT22;4099;52.684;9.918;2023-04-03T18:58:47;3.10;97.90
8114;DHT22;4099;52.684;9.918;2023-04-03T19:03:50;3.00;98.00
8114;DHT22;4099;52.684;9.918;2023-04-03T19:08:52;2.90;98.10
8114;DHT22;4099;52.684;9.918;2023-04-03T19:13:54;2.90;98.00
8114;DHT22;4099;52.684;9.918;2023-04-03T19:18:57;2.90;98.40
8114;DHT22;4099;52.684;9.918;2023-04-03T19:23:58;2.80;98.70
8114;DHT22;4099;52.684;9.918;2023-04-03T19:29:00;2.70;99.40
8114;DHT22;4099;52.684;9.918;2023-04-03T19:34:04;2.50;99.70
8114;DHT22;4099;52.684;9.918;2023-04-03T19:39:06;2.30;99.90
8114;DHT22;4099;52.684;9.918;2023-04-03T19:44:08;2.40;99.90
8114;DHT22;4099;52.684;9.918;2023-04-03T19:49:11;2.30;99.80
8114;DHT22;4099;52.684;9.918;2023-04-03T19:54:13;2.20;99.70
8114;DHT22;4099;52.684;9.918;2023-04-03T19:59:15;2.10;99.50
8114;DHT22;4099;52.684;9.918;2023-04-03T20:04:18;1.90;99.40
8114;DHT22;4099;52.684;9.918;2023-04-03T20:09:20;1.80;99.90
8114;DHT22;4099;52.684;9.918;2023-04-03T20:14:22;1.60;99.90
8114;DHT22;4099;52.684;9.918;2023-04-03T20:19:25;1.40;99.90
8114;DHT22;4099;52.684;9.918;2023-04-03T20:24:27;1.30;99.90
8114;DHT22;4099;52.684;9.918;2023-04-03T20:29:29;1.20;99.90
8114;DHT22;4099;52.684;9.918;2023-04-03T20:34:32;1.00;99.90
8114;DHT22;4099;52.684;9.918;2023-04-03T20:39:34;1.00;99.90
8114;DHT22;4099;52.684;9.918;2023-04-03T20:44:36;0.90;99.90
8114;DHT22;4099;52.684;9.918;2023-04-03T20:49:39;0.90;99.90
8114;DHT22;4099;52.684;9.918;2023-04-03T20:54:42;0.90;99.90
8114;DHT22;4099;52.684;9.918;2023-04-03T20:59:45;0.80;99.90
8114;DHT22;4099;52.684;9.918;2023-04-03T21:04:51;0.70;99.90
8114;DHT22;4099;52.684;9.918;2023-04-03T21:20:55;0.60;99.90
8114;DHT22;4099;52.684;9.918;2023-04-03T21:25:58;0.60;99.90
8114;DHT22;4099;52.684;9.918;2023-04-03T21:31:01;0.50;99.90
8114;DHT22;4099;52.684;9.918;2023-04-03T21:36:04;0.60;99.90
8114;DHT22;4099;52.684;9.918;2023-04-03T21:41:05;0.60;99.90
8114;DHT22;4099;52.684;9.918;2023-04-03T21:46:07;0.60;99.90
8114;DHT22;4099;52.684;9.918;2023-04-03T21:51:10;0.50;99.90
8114;DHT22;4099;52.684;9.918;2023-04-03T21:56:12;0.40;99.90
8114;DHT22;4099;52.684;9.918;2023-04-03T22:01:14;0.20;99.90
8114;DHT22;4099;52.684;9.918;2023-04-03T22:06:17;0.20;99.90
8114;DHT22;4099;52.684;9.918;2023-04-03T22:11:19;0.20;99.90
8114;DHT22;4099;52.684;9.918;2023-04-03T22:16:24;0.10;99.90
8114;DHT22;4099;52.684;9.918;2023-04-03T22:21:27;0.10;99.90
8114;DHT22;4099;52.684;9.918;2023-04-03T22:26:28;0.00;99.90
8114;DHT22;4099;52.684;9.918;2023-04-03T22:31:30;0.00;99.90
8114;DHT22;4099;52.684;9.918;2023-04-03T22:36:33;-0.10;99.90
8114;DHT22;4099;52.684;9.918;2023-04-03T22:41:35;-0.20;99.90
8114;DHT22;4099;52.684;9.918;2023-04-03T22:46:37;-0.30;99.90
8114;DHT22;4099;52.684;9.918;2023-04-03T22:51:40;-0.30;99.90
8114;DHT22;4099;52.684;9.918;2023-04-03T22:56:42;-0.40;99.90
8114;DHT22;4099;52.684;9.918;2023-04-03T23:01:44;-0.40;99.90
8114;DHT22;4099;52.684;9.918;2023-04-03T23:06:47;-0.40;99.90
8114;DHT22;4099;52.684;9.918;2023-04-03T23:11:48;-0.60;99.90
8114;DHT22;4099;52.684;9.918;2023-04-03T23:16:50;-0.60;99.90
8114;DHT22;4099;52.684;9.918;2023-04-03T23:21:53;-0.60;99.90
8114;DHT22;4099;52.684;9.918;2023-04-03T23:26:55;-0.70;99.90
8114;DHT22;4099;52.684;9.918;2023-04-03T23:31:57;-0.70;99.90
8114;DHT22;4099;52.684;9.918;2023-04-03T23:37:00;-0.90;99.90
8114;DHT22;4099;52.684;9.918;2023-04-03T23:42:02;-0.90;99.90
8114;DHT22;4099;52.684;9.918;2023-04-03T23:47:05;-0.90;99.90
8114;DHT22;4099;52.684;9.918;2023-04-03T23:52:08;-0.80;99.90
8114;DHT22;4099;52.684;9.918;2023-04-03T23:57:09;-1.10;99.90
